sensor_id;sensor_type;location;lat;lon;timestamp;temperature;humidity
19665;DHT22;9980;51.020;7.772;2023-03-26T00:01:36;10.80;99.90
19665;DHT22;9980;51.020;7.772;2023-03-26T00:04:04;10.70;99.90
19665;DHT22;9980;51.020;7.772;2023-03-26T00:06:35;10.70;99.90
19665;DHT22;9980;51.020;7.772;2023-03-26T00:09:07;10.70;99.90
19665;DHT22;9980;51.020;7.772;2023-03-26T00:11:36;10.70;99.90
19665;DHT22;9980;51.020;7.772;2023-03-26T00:14:03;10.70;99.90
19665;DHT22;9980;51.020;7.772;2023-03-26T00:16:32;10.80;99.90
19665;DHT22;9980;51.020;7.772;2023-03-26T00:19:00;10.70;99.90
19665;DHT22;9980;51.020;7.772;2023-03-26T00:21:29;10.70;99.90
19665;DHT22;9980;51.020;7.772;2023-03-26T00:24:05;10.70;99.90
19665;DHT22;9980;51.020;7.772;2023-03-26T00:26:40;10.70;99.90
19665;DHT22;9980;51.020;7.772;2023-03-26T00:29:08;10.70;99.90
19665;DHT22;9980;51.020;7.772;2023-03-26T00:31:35;10.80;99.90
19665;DHT22;9980;51.020;7.772;2023-03-26T00:34:05;10.70;99.90
19665;DHT22;9980;51.020;7.772;2023-03-26T00:36:32;10.80;99.90
19665;DHT22;9980;51.020;7.772;2023-03-26T00:39:02;10.80;99.90
19665;DHT22;9980;51.020;7.772;2023-03-26T00:41:31;10.80;99.90
19665;DHT22;9980;51.020;7.772;2023-03-26T00:44:02;10.80;99.90
19665;DHT22;9980;51.020;7.772;2023-03-26T00:46:30;10.80;99.90
19665;DHT22;9980;51.020;7.772;2023-03-26T00:48:58;10.80;99.90
19665;DHT22;9980;51.020;7.772;2023-03-26T00:51:26;10.80;99.90
19665;DHT22;9980;51.020;7.772;2023-03-26T00:53:55;10.80;99.90
19665;DHT22;9980;51.020;7.772;2023-03-26T00:56:24;10.80;99.90
19665;DHT22;9980;51.020;7.772;2023-03-26T00:58:51;10.80;99.90
19665;DHT22;9980;51.020;7.772;2023-03-26T01:01:22;10.80;99.90
19665;DHT22;9980;51.020;7.772;2023-03-26T01:03:56;10.80;99.90
19665;DHT22;9980;51.020;7.772;2023-03-26T01:06:36;10.80;99.90
19665;DHT22;9980;51.020;7.772;2023-03-26T01:09:14;10.80;99.90
19665;DHT22;9980;51.020;7.772;2023-03-26T01:11:45;10.80;99.90
19665;DHT22;9980;51.020;7.772;2023-03-26T01:14:19;10.80;99.90
19665;DHT22;9980;51.020;7.772;2023-03-26T01:17:09;10.80;99.90
19665;DHT22;9980;51.020;7.772;2023-03-26T01:22:21;10.80;99.90
19665;DHT22;9980;51.020;7.772;2023-03-26T01:24:51;10.80;99.90
19665;DHT22;9980;51.020;7.772;2023-03-26T01:27:39;10.80;99.90
19665;DHT22;9980;51.020;7.772;2023-03-26T01:30:29;10.80;99.90
19665;DHT22;9980;51.020;7.772;2023-03-26T01:36:14;10.80;99.90
19665;DHT22;9980;51.020;7.772;2023-03-26T01:39:21;10.80;99.90
19665;DHT22;9980;51.020;7.772;2023-03-26T01:41:57;10.80;99.90
19665;DHT22;9980;51.020;7.772;2023-03-26T01:44:41;10.80;99.90
19665;DHT22;9980;51.020;7.772;2023-03-26T01:47:15;10.90;99.90
19665;DHT22;9980;51.020;7.772;2023-03-26T01:49:43;10.80;99.90
19665;DHT22;9980;51.020;7.772;2023-03-26T01:52:15;10.80;99.90
19665;DHT22;9980;51.020;7.772;2023-03-26T01:54:44;10.80;99.90
19665;DHT22;9980;51.020;7.772;2023-03-26T02:00:54;10.80;99.90
19665;DHT22;9980;51.020;7.772;2023-03-26T02:03:38;10.80;99.90
19665;DHT22;9980;51.020;7.772;2023-03-26T02:06:14;10.80;99.90
19665;DHT22;9980;51.020;7.772;2023-03-26T02:08:58;10.80;99.90
19665;DHT22;9980;51.020;7.772;2023-03-26T02:11:29;10.80;99.90
19665;DHT22;9980;51.020;7.772;2023-03-26T02:14:03;10.80;99.90
19665;DHT22;9980;51.020;7.772;2023-03-26T02:16:31;10.80;99.90
19665;DHT22;9980;51.020;7.772;2023-03-26T02:18:58;10.80;99.90
19665;DHT22;9980;51.020;7.772;2023-03-26T02:21:26;10.80;99.90
19665;DHT22;9980;51.020;7.772;2023-03-26T02:23:56;10.80;99.90
19665;DHT22;9980;51.020;7.772;2023-03-26T02:26:32;10.70;99.90
19665;DHT22;9980;51.020;7.772;2023-03-26T02:29:08;10.70;99.90
19665;DHT22;9980;51.020;7.772;2023-03-26T02:31:38;10.70;99.90
19665;DHT22;9980;51.020;7.772;2023-03-26T02:34:05;10.70;99.90
19665;DHT22;9980;51.020;7.772;2023-03-26T02:36:35;10.70;99.90
19665;DHT22;9980;51.020;7.772;2023-03-26T02:39:03;10.70;99.90
19665;DHT22;9980;51.020;7.772;2023-03-26T02:41:34;10.70;99.90
19665;DHT22;9980;51.020;7.772;2023-03-26T02:44:06;10.70;99.90
19665;DHT22;9980;51.020;7.772;2023-03-26T02:47:08;10.60;99.90
19665;DHT22;9980;51.020;7.772;2023-03-26T02:49:53;10.60;99.90
19665;DHT22;9980;51.020;7.772;2023-03-26T02:52:25;10.60;99.90
19665;DHT22;9980;51.020;7.772;2023-03-26T02:54:56;10.60;99.90
19665;DHT22;9980;51.020;7.772;2023-03-26T02:57:24;10.60;99.90
19665;DHT22;9980;51.020;7.772;2023-03-26T03:00:10;10.60;99.90
19665;DHT22;9980;51.020;7.772;2023-03-26T03:02:49;10.60;99.90
19665;DHT22;9980;51.020;7.772;2023-03-26T03:05:31;10.60;99.90
19665;DHT22;9980;51.020;7.772;2023-03-26T03:08:15;10.60;99.90
19665;DHT22;9980;51.020;7.772;2023-03-26T03:11:17;10.60;99.90
19665;DHT22;9980;51.020;7.772;2023-03-26T03:13:49;10.60;99.90
19665;DHT22;9980;51.020;7.772;2023-03-26T03:16:20;10.60;99.90
19665;DHT22;9980;51.020;7.772;2023-03-26T03:18:47;10.50;99.90
19665;DHT22;9980;51.020;7.772;2023-03-26T03:21:21;10.50;99.90
19665;DHT22;9980;51.020;7.772;2023-03-26T03:23:49;10.50;99.90
19665;DHT22;9980;51.020;7.772;2023-03-26T03:26:19;10.40;99.90
19665;DHT22;9980;51.020;7.772;2023-03-26T03:28:52;10.40;99.90
19665;DHT22;9980;51.020;7.772;2023-03-26T03:31:23;10.40;99.90
19665;DHT22;9980;51.020;7.772;2023-03-26T03:33:56;10.30;99.90
19665;DHT22;9980;51.020;7.772;2023-03-26T03:36:23;10.30;99.90
19665;DHT22;9980;51.020;7.772;2023-03-26T03:39:00;10.30;99.90
19665;DHT22;9980;51.020;7.772;2023-03-26T03:41:28;10.30;99.90
19665;DHT22;9980;51.020;7.772;2023-03-26T03:43:57;10.30;99.90
19665;DHT22;9980;51.020;7.772;2023-03-26T03:46:28;10.30;99.90
19665;DHT22;9980;51.020;7.772;2023-03-26T03:48:55;10.30;99.90
19665;DHT22;9980;51.020;7.772;2023-03-26T03:51:29;10.30;99.90
19665;DHT22;9980;51.020;7.772;2023-03-26T03:54:02;10.30;99.90
19665;DHT22;9980;51.020;7.772;2023-03-26T03:56:51;10.30;99.90
19665;DHT22;9980;51.020;7.772;2023-03-26T03:59:33;10.30;99.90
19665;DHT22;9980;51.020;7.772;2023-03-26T04:02:03;10.30;99.90
19665;DHT22;9980;51.020;7.772;2023-03-26T04:04:37;10.30;99.90
19665;DHT22;9980;51.020;7.772;2023-03-26T04:07:07;10.30;99.90
19665;DHT22;9980;51.020;7.772;2023-03-26T04:10:08;10.30;99.90
19665;DHT22;9980;51.020;7.772;2023-03-26T04:12:53;10.30;99.90
19665;DHT22;9980;51.020;7.772;2023-03-26T04:15:37;10.30;99.90
19665;DHT22;9980;51.020;7.772;2023-03-26T04:18:04;10.30;99.90
19665;DHT22;9980;51.020;7.772;2023-03-26T04:20:37;10.30;99.90
19665;DHT22;9980;51.020;7.772;2023-03-26T04:23:17;10.30;99.90
19665;DHT22;9980;51.020;7.772;2023-03-26T04:25:53;10.30;99.90
19665;DHT22;9980;51.020;7.772;2023-03-26T04:28:41;10.30;99.90
19665;DHT22;9980;51.020;7.772;2023-03-26T04:31:19;10.30;99.90
19665;DHT22;9980;51.020;7.772;2023-03-26T04:33:59;10.30;99.90
19665;DHT22;9980;51.020;7.772;2023-03-26T04:36:48;10.30;99.90
19665;DHT22;9980;51.020;7.772;2023-03-26T04:39:17;10.30;99.90
19665;DHT22;9980;51.020;7.772;2023-03-26T04:42:03;10.30;99.90
19665;DHT22;9980;51.020;7.772;2023-03-26T04:44:42;10.30;99.90
19665;DHT22;9980;51.020;7.772;2023-03-26T04:47:11;10.30;99.90
19665;DHT22;9980;51.020;7.772;2023-03-26T04:49:44;10.30;99.90
19665;DHT22;9980;51.020;7.772;2023-03-26T04:52:14;10.30;99.90
19665;DHT22;9980;51.020;7.772;2023-03-26T04:55:11;10.30;99.90
19665;DHT22;9980;51.020;7.772;2023-03-26T04:57:54;10.30;99.90
19665;DHT22;9980;51.020;7.772;2023-03-26T05:00:45;10.30;99.90
19665;DHT22;9980;51.020;7.772;2023-03-26T05:03:13;10.30;99.90
19665;DHT22;9980;51.020;7.772;2023-03-26T05:05:40;10.30;99.90
19665;DHT22;9980;51.020;7.772;2023-03-26T05:08:08;10.30;99.90
19665;DHT22;9980;51.020;7.772;2023-03-26T05:10:35;10.30;99.90
19665;DHT22;9980;51.020;7.772;2023-03-26T05:13:08;10.30;99.90
19665;DHT22;9980;51.020;7.772;2023-03-26T05:15:37;10.20;99.90
19665;DHT22;9980;51.020;7.772;2023-03-26T05:18:22;10.30;99.90
19665;DHT22;9980;51.020;7.772;2023-03-26T05:20:51;10.30;99.90
19665;DHT22;9980;51.020;7.772;2023-03-26T05:23:18;10.20;99.90
19665;DHT22;9980;51.020;7.772;2023-03-26T05:26:06;10.30;99.90
19665;DHT22;9980;51.020;7.772;2023-03-26T05:28:33;10.20;99.90
19665;DHT22;9980;51.020;7.772;2023-03-26T05:31:20;10.20;99.90
19665;DHT22;9980;51.020;7.772;2023-03-26T05:33:49;10.20;99.90
19665;DHT22;9980;51.020;7.772;2023-03-26T05:36:18;10.20;99.90
19665;DHT22;9980;51.020;7.772;2023-03-26T05:38:49;10.20;99.90
19665;DHT22;9980;51.020;7.772;2023-03-26T05:41:38;10.20;99.90
19665;DHT22;9980;51.020;7.772;2023-03-26T05:44:04;10.20;99.90
19665;DHT22;9980;51.020;7.772;2023-03-26T05:46:31;10.20;99.90
19665;DHT22;9980;51.020;7.772;2023-03-26T05:48:58;10.20;99.90
19665;DHT22;9980;51.020;7.772;2023-03-26T05:51:28;10.20;99.90
19665;DHT22;9980;51.020;7.772;2023-03-26T05:54:08;10.20;99.90
19665;DHT22;9980;51.020;7.772;2023-03-26T05:56:55;10.20;99.90
19665;DHT22;9980;51.020;7.772;2023-03-26T05:59:45;10.20;99.90
19665;DHT22;9980;51.020;7.772;2023-03-26T06:02:35;10.20;99.90
19665;DHT22;9980;51.020;7.772;2023-03-26T06:05:22;10.20;99.90
19665;DHT22;9980;51.020;7.772;2023-03-26T06:08:02;10.20;99.90
19665;DHT22;9980;51.020;7.772;2023-03-26T06:10:39;10.20;99.90
19665;DHT22;9980;51.020;7.772;2023-03-26T06:13:06;10.20;99.90
19665;DHT22;9980;51.020;7.772;2023-03-26T06:15:36;10.20;99.90
19665;DHT22;9980;51.020;7.772;2023-03-26T06:18:14;10.20;99.90
19665;DHT22;9980;51.020;7.772;2023-03-26T06:20:54;10.20;99.90
19665;DHT22;9980;51.020;7.772;2023-03-26T06:23:35;10.20;99.90
19665;DHT22;9980;51.020;7.772;2023-03-26T06:26:07;10.20;99.90
19665;DHT22;9980;51.020;7.772;2023-03-26T06:28:57;10.20;99.90
19665;DHT22;9980;51.020;7.772;2023-03-26T06:31:45;10.20;99.90
19665;DHT22;9980;51.020;7.772;2023-03-26T06:34:16;10.20;99.90
19665;DHT22;9980;51.020;7.772;2023-03-26T06:36:43;10.20;99.90
19665;DHT22;9980;51.020;7.772;2023-03-26T06:39:10;10.20;99.90
19665;DHT22;9980;51.020;7.772;2023-03-26T06:41:46;10.20;99.90
19665;DHT22;9980;51.020;7.772;2023-03-26T06:44:32;10.20;99.90
19665;DHT22;9980;51.020;7.772;2023-03-26T06:47:17;10.30;99.90
19665;DHT22;9980;51.020;7.772;2023-03-26T06:50:23;10.30;99.90
19665;DHT22;9980;51.020;7.772;2023-03-26T06:53:10;10.30;99.90
19665;DHT22;9980;51.020;7.772;2023-03-26T06:55:57;10.40;99.90
19665;DHT22;9980;51.020;7.772;2023-03-26T06:58:24;10.40;99.90
19665;DHT22;9980;51.020;7.772;2023-03-26T07:01:29;10.40;99.90
19665;DHT22;9980;51.020;7.772;2023-03-26T07:04:22;10.40;99.90
19665;DHT22;9980;51.020;7.772;2023-03-26T07:07:07;10.40;99.90
19665;DHT22;9980;51.020;7.772;2023-03-26T07:10:13;10.40;99.90
19665;DHT22;9980;51.020;7.772;2023-03-26T07:13:02;10.50;99.90
19665;DHT22;9980;51.020;7.772;2023-03-26T07:15:48;10.50;99.90
19665;DHT22;9980;51.020;7.772;2023-03-26T07:18:28;10.50;99.90
19665;DHT22;9980;51.020;7.772;2023-03-26T07:20:55;10.50;99.90
19665;DHT22;9980;51.020;7.772;2023-03-26T07:23:24;10.50;99.90
19665;DHT22;9980;51.020;7.772;2023-03-26T07:29:36;10.60;99.90
19665;DHT22;9980;51.020;7.772;2023-03-26T07:32:45;10.60;99.90
19665;DHT22;9980;51.020;7.772;2023-03-26T07:35:48;10.60;99.90
19665;DHT22;9980;51.020;7.772;2023-03-26T07:42:26;10.70;99.90
19665;DHT22;9980;51.020;7.772;2023-03-26T07:45:40;10.70;99.90
19665;DHT22;9980;51.020;7.772;2023-03-26T07:48:30;10.70;99.90
19665;DHT22;9980;51.020;7.772;2023-03-26T07:51:14;10.70;99.90
19665;DHT22;9980;51.020;7.772;2023-03-26T07:54:03;10.80;99.90
19665;DHT22;9980;51.020;7.772;2023-03-26T07:56:40;10.80;99.90
19665;DHT22;9980;51.020;7.772;2023-03-26T07:59:50;10.80;99.90
19665;DHT22;9980;51.020;7.772;2023-03-26T08:06:43;10.90;99.90
19665;DHT22;9980;51.020;7.772;2023-03-26T08:09:31;10.90;99.90
19665;DHT22;9980;51.020;7.772;2023-03-26T08:12:26;10.90;99.90
19665;DHT22;9980;51.020;7.772;2023-03-26T08:15:27;11.00;99.90
19665;DHT22;9980;51.020;7.772;2023-03-26T08:20:54;11.00;99.90
19665;DHT22;9980;51.020;7.772;2023-03-26T08:26:45;11.10;99.90
19665;DHT22;9980;51.020;7.772;2023-03-26T08:29:23;11.10;99.90
19665;DHT22;9980;51.020;7.772;2023-03-26T08:32:17;11.20;99.90
19665;DHT22;9980;51.020;7.772;2023-03-26T08:34:45;11.20;99.90
19665;DHT22;9980;51.020;7.772;2023-03-26T08:37:12;11.20;99.90
19665;DHT22;9980;51.020;7.772;2023-03-26T08:39:39;11.20;99.90
19665;DHT22;9980;51.020;7.772;2023-03-26T08:48:28;11.30;99.90
19665;DHT22;9980;51.020;7.772;2023-03-26T08:51:18;11.30;99.90
19665;DHT22;9980;51.020;7.772;2023-03-26T08:54:30;11.30;99.90
19665;DHT22;9980;51.020;7.772;2023-03-26T08:57:35;11.30;99.90
19665;DHT22;9980;51.020;7.772;2023-03-26T09:13:29;11.30;99.90
19665;DHT22;9980;51.020;7.772;2023-03-26T09:16:33;11.30;99.90
19665;DHT22;9980;51.020;7.772;2023-03-26T09:25:52;11.30;99.90
19665;DHT22;9980;51.020;7.772;2023-03-26T09:34:26;11.30;99.90
19665;DHT22;9980;51.020;7.772;2023-03-26T09:37:42;11.30;99.90
19665;DHT22;9980;51.020;7.772;2023-03-26T09:40:39;11.20;99.90
19665;DHT22;9980;51.020;7.772;2023-03-26T09:46:18;11.20;99.90
19665;DHT22;9980;51.020;7.772;2023-03-26T09:52:42;11.10;99.90
19665;DHT22;9980;51.020;7.772;2023-03-26T09:56:00;11.10;99.90
19665;DHT22;9980;51.020;7.772;2023-03-26T10:10:51;10.90;99.90
19665;DHT22;9980;51.020;7.772;2023-03-26T10:16:55;10.80;99.90
19665;DHT22;9980;51.020;7.772;2023-03-26T10:19:40;10.80;99.90
19665;DHT22;9980;51.020;7.772;2023-03-26T10:22:39;10.80;99.90
19665;DHT22;9980;51.020;7.772;2023-03-26T10:31:05;10.80;99.90
19665;DHT22;9980;51.020;7.772;2023-03-26T10:37:13;10.80;99.90
19665;DHT22;9980;51.020;7.772;2023-03-26T10:39:45;10.80;99.90
19665;DHT22;9980;51.020;7.772;2023-03-26T10:42:42;10.80;99.90
19665;DHT22;9980;51.020;7.772;2023-03-26T10:48:34;10.80;99.90
19665;DHT22;9980;51.020;7.772;2023-03-26T10:51:17;10.80;99.90
19665;DHT22;9980;51.020;7.772;2023-03-26T10:53:50;10.70;99.90
19665;DHT22;9980;51.020;7.772;2023-03-26T10:56:33;10.70;99.90
19665;DHT22;9980;51.020;7.772;2023-03-26T10:59:06;10.70;99.90
19665;DHT22;9980;51.020;7.772;2023-03-26T11:01:49;10.70;99.90
19665;DHT22;9980;51.020;7.772;2023-03-26T11:05:01;10.70;99.90
19665;DHT22;9980;51.020;7.772;2023-03-26T11:08:19;10.70;99.90
19665;DHT22;9980;51.020;7.772;2023-03-26T11:23:33;10.60;99.90
19665;DHT22;9980;51.020;7.772;2023-03-26T11:26:11;10.60;99.90
19665;DHT22;9980;51.020;7.772;2023-03-26T11:29:00;10.60;99.90
19665;DHT22;9980;51.020;7.772;2023-03-26T11:32:12;10.60;99.90
19665;DHT22;9980;51.020;7.772;2023-03-26T11:35:01;10.60;99.90
19665;DHT22;9980;51.020;7.772;2023-03-26T11:37:41;10.60;99.90
19665;DHT22;9980;51.020;7.772;2023-03-26T11:40:32;10.60;99.90
19665;DHT22;9980;51.020;7.772;2023-03-26T11:43:06;10.60;99.90
19665;DHT22;9980;51.020;7.772;2023-03-26T11:45:36;10.60;99.90
19665;DHT22;9980;51.020;7.772;2023-03-26T11:48:18;10.60;99.90
19665;DHT22;9980;51.020;7.772;2023-03-26T11:51:07;10.60;99.90
19665;DHT22;9980;51.020;7.772;2023-03-26T11:53:39;10.70;99.90
19665;DHT22;9980;51.020;7.772;2023-03-26T11:59:10;10.70;99.90
19665;DHT22;9980;51.020;7.772;2023-03-26T12:01:55;10.70;99.90
19665;DHT22;9980;51.020;7.772;2023-03-26T12:07:17;10.80;99.90
19665;DHT22;9980;51.020;7.772;2023-03-26T12:09:56;10.80;99.90
19665;DHT22;9980;51.020;7.772;2023-03-26T12:12:45;10.90;99.90
19665;DHT22;9980;51.020;7.772;2023-03-26T12:15:14;10.90;99.90
19665;DHT22;9980;51.020;7.772;2023-03-26T12:17:49;10.90;99.90
19665;DHT22;9980;51.020;7.772;2023-03-26T12:22:57;11.00;99.90
19665;DHT22;9980;51.020;7.772;2023-03-26T12:25:36;11.00;99.90
19665;DHT22;9980;51.020;7.772;2023-03-26T12:28:15;11.00;99.90
19665;DHT22;9980;51.020;7.772;2023-03-26T12:31:04;11.00;99.90
19665;DHT22;9980;51.020;7.772;2023-03-26T12:33:34;11.00;99.90
19665;DHT22;9980;51.020;7.772;2023-03-26T12:36:22;11.00;99.90
19665;DHT22;9980;51.020;7.772;2023-03-26T12:38:53;11.00;99.90
19665;DHT22;9980;51.020;7.772;2023-03-26T12:41:40;11.00;99.90
19665;DHT22;9980;51.020;7.772;2023-03-26T12:44:35;11.00;99.90
19665;DHT22;9980;51.020;7.772;2023-03-26T12:47:29;11.00;99.90
19665;DHT22;9980;51.020;7.772;2023-03-26T12:50:21;11.00;99.90
19665;DHT22;9980;51.020;7.772;2023-03-26T12:53:26;11.10;99.90
19665;DHT22;9980;51.020;7.772;2023-03-26T12:56:30;11.10;99.90
19665;DHT22;9980;51.020;7.772;2023-03-26T12:59:52;11.10;99.90
19665;DHT22;9980;51.020;7.772;2023-03-26T13:06:13;11.10;99.90
19665;DHT22;9980;51.020;7.772;2023-03-26T13:09:56;11.10;99.90
19665;DHT22;9980;51.020;7.772;2023-03-26T13:12:48;11.10;99.90
19665;DHT22;9980;51.020;7.772;2023-03-26T13:15:51;11.10;99.90
19665;DHT22;9980;51.020;7.772;2023-03-26T13:18:43;11.10;99.90
19665;DHT22;9980;51.020;7.772;2023-03-26T13:29:54;11.20;99.90
19665;DHT22;9980;51.020;7.772;2023-03-26T13:36:15;11.20;99.90
19665;DHT22;9980;51.020;7.772;2023-03-26T13:38:58;11.30;99.90
19665;DHT22;9980;51.020;7.772;2023-03-26T13:41:57;11.30;99.90
19665;DHT22;9980;51.020;7.772;2023-03-26T13:44:55;11.30;99.90
19665;DHT22;9980;51.020;7.772;2023-03-26T13:47:38;11.40;99.90
19665;DHT22;9980;51.020;7.772;2023-03-26T13:53:12;11.50;99.90
19665;DHT22;9980;51.020;7.772;2023-03-26T13:55:53;11.60;99.90
19665;DHT22;9980;51.020;7.772;2023-03-26T13:58:33;11.70;99.90
19665;DHT22;9980;51.020;7.772;2023-03-26T14:01:30;11.70;99.90
19665;DHT22;9980;51.020;7.772;2023-03-26T14:04:24;11.80;99.90
19665;DHT22;9980;51.020;7.772;2023-03-26T14:07:07;11.90;99.90
19665;DHT22;9980;51.020;7.772;2023-03-26T14:09:43;12.00;99.90
19665;DHT22;9980;51.020;7.772;2023-03-26T14:12:28;12.10;99.90
19665;DHT22;9980;51.020;7.772;2023-03-26T14:15:28;12.20;99.90
19665;DHT22;9980;51.020;7.772;2023-03-26T14:18:12;12.30;99.90
19665;DHT22;9980;51.020;7.772;2023-03-26T14:29:58;12.50;99.90
19665;DHT22;9980;51.020;7.772;2023-03-26T14:35:51;12.60;99.90
19665;DHT22;9980;51.020;7.772;2023-03-26T14:41:57;12.70;99.90
19665;DHT22;9980;51.020;7.772;2023-03-26T14:47:25;12.70;99.90
19665;DHT22;9980;51.020;7.772;2023-03-26T14:52:47;12.70;99.90
19665;DHT22;9980;51.020;7.772;2023-03-26T15:10:47;12.50;99.90
19665;DHT22;9980;51.020;7.772;2023-03-26T15:13:44;12.50;99.90
19665;DHT22;9980;51.020;7.772;2023-03-26T15:19:17;12.40;99.90
19665;DHT22;9980;51.020;7.772;2023-03-26T15:22:32;12.30;99.90
19665;DHT22;9980;51.020;7.772;2023-03-26T15:41:14;12.10;99.90
19665;DHT22;9980;51.020;7.772;2023-03-26T15:44:27;12.10;99.90
19665;DHT22;9980;51.020;7.772;2023-03-26T15:47:45;12.10;99.90
19665;DHT22;9980;51.020;7.772;2023-03-26T16:10:59;11.90;99.90
19665;DHT22;9980;51.020;7.772;2023-03-26T16:13:42;11.90;99.90
19665;DHT22;9980;51.020;7.772;2023-03-26T16:18:56;11.80;99.90
19665;DHT22;9980;51.020;7.772;2023-03-26T16:21:53;11.70;99.90
19665;DHT22;9980;51.020;7.772;2023-03-26T16:24:37;11.70;99.90
19665;DHT22;9980;51.020;7.772;2023-03-26T16:30:05;11.70;99.90
19665;DHT22;9980;51.020;7.772;2023-03-26T16:32:53;11.60;99.90
19665;DHT22;9980;51.020;7.772;2023-03-26T16:38:45;11.60;99.90
19665;DHT22;9980;51.020;7.772;2023-03-26T16:41:18;11.50;99.90
19665;DHT22;9980;51.020;7.772;2023-03-26T16:46:53;11.50;99.90
19665;DHT22;9980;51.020;7.772;2023-03-26T16:52:48;11.40;99.90
19665;DHT22;9980;51.020;7.772;2023-03-26T17:01:51;11.30;99.90
19665;DHT22;9980;51.020;7.772;2023-03-26T17:04:16;11.30;99.90
19665;DHT22;9980;51.020;7.772;2023-03-26T17:07:20;11.30;99.90
19665;DHT22;9980;51.020;7.772;2023-03-26T17:10:18;11.20;99.90
19665;DHT22;9980;51.020;7.772;2023-03-26T17:13:04;11.10;99.90
19665;DHT22;9980;51.020;7.772;2023-03-26T17:21:25;11.00;99.90
19665;DHT22;9980;51.020;7.772;2023-03-26T17:24:39;11.00;99.90
19665;DHT22;9980;51.020;7.772;2023-03-26T17:27:46;10.90;99.90
19665;DHT22;9980;51.020;7.772;2023-03-26T17:30:59;10.90;99.90
19665;DHT22;9980;51.020;7.772;2023-03-26T17:33:36;10.80;99.90
19665;DHT22;9980;51.020;7.772;2023-03-26T17:41:08;10.70;99.90
19665;DHT22;9980;51.020;7.772;2023-03-26T17:43:50;10.70;99.90
19665;DHT22;9980;51.020;7.772;2023-03-26T17:46:35;10.60;99.90
19665;DHT22;9980;51.020;7.772;2023-03-26T17:57:15;10.50;99.90
19665;DHT22;9980;51.020;7.772;2023-03-26T17:59:50;10.50;99.90
19665;DHT22;9980;51.020;7.772;2023-03-26T18:02:33;10.50;99.90
19665;DHT22;9980;51.020;7.772;2023-03-26T18:05:11;10.40;99.90
19665;DHT22;9980;51.020;7.772;2023-03-26T18:11:08;10.40;99.90
19665;DHT22;9980;51.020;7.772;2023-03-26T18:13:53;10.40;99.90
19665;DHT22;9980;51.020;7.772;2023-03-26T18:16:55;10.30;99.90
19665;DHT22;9980;51.020;7.772;2023-03-26T18:19:25;10.30;99.90
19665;DHT22;9980;51.020;7.772;2023-03-26T18:21:55;10.30;99.90
19665;DHT22;9980;51.020;7.772;2023-03-26T18:24:28;10.30;99.90
19665;DHT22;9980;51.020;7.772;2023-03-26T18:27:01;10.30;99.90
19665;DHT22;9980;51.020;7.772;2023-03-26T18:29:33;10.30;99.90
19665;DHT22;9980;51.020;7.772;2023-03-26T18:34:46;10.30;99.90
19665;DHT22;9980;51.020;7.772;2023-03-26T18:37:18;10.20;99.90
19665;DHT22;9980;51.020;7.772;2023-03-26T18:40:00;10.20;99.90
19665;DHT22;9980;51.020;7.772;2023-03-26T18:42:50;10.20;99.90
19665;DHT22;9980;51.020;7.772;2023-03-26T18:45:28;10.20;99.90
19665;DHT22;9980;51.020;7.772;2023-03-26T18:48:10;10.20;99.90
19665;DHT22;9980;51.020;7.772;2023-03-26T18:50:43;10.20;99.90
19665;DHT22;9980;51.020;7.772;2023-03-26T18:53:23;10.10;99.90
19665;DHT22;9980;51.020;7.772;2023-03-26T18:55:54;10.10;99.90
19665;DHT22;9980;51.020;7.772;2023-03-26T18:58:36;10.10;99.90
19665;DHT22;9980;51.020;7.772;2023-03-26T19:01:07;10.00;99.90
19665;DHT22;9980;51.020;7.772;2023-03-26T19:03:51;10.00;99.90
19665;DHT22;9980;51.020;7.772;2023-03-26T19:06:19;10.00;99.90
19665;DHT22;9980;51.020;7.772;2023-03-26T19:08:47;9.90;99.90
19665;DHT22;9980;51.020;7.772;2023-03-26T19:11:16;9.90;99.90
19665;DHT22;9980;51.020;7.772;2023-03-26T19:13:43;9.90;99.90
19665;DHT22;9980;51.020;7.772;2023-03-26T19:16:25;9.80;99.90
19665;DHT22;9980;51.020;7.772;2023-03-26T19:19:00;9.80;99.90
19665;DHT22;9980;51.020;7.772;2023-03-26T19:21:31;9.70;99.90
19665;DHT22;9980;51.020;7.772;2023-03-26T19:23:59;9.70;99.90
19665;DHT22;9980;51.020;7.772;2023-03-26T19:26:28;9.60;99.90
19665;DHT22;9980;51.020;7.772;2023-03-26T19:28:55;9.60;99.90
19665;DHT22;9980;51.020;7.772;2023-03-26T19:36:50;9.50;99.90
19665;DHT22;9980;51.020;7.772;2023-03-26T19:39:33;9.50;99.90
19665;DHT22;9980;51.020;7.772;2023-03-26T19:42:17;9.40;99.90
19665;DHT22;9980;51.020;7.772;2023-03-26T19:44:48;9.40;99.90
19665;DHT22;9980;51.020;7.772;2023-03-26T19:47:20;9.40;99.90
19665;DHT22;9980;51.020;7.772;2023-03-26T19:50:28;9.40;99.90
19665;DHT22;9980;51.020;7.772;2023-03-26T19:53:08;9.30;99.90
19665;DHT22;9980;51.020;7.772;2023-03-26T19:55:53;9.30;99.90
19665;DHT22;9980;51.020;7.772;2023-03-26T19:58:22;9.20;99.90
19665;DHT22;9980;51.020;7.772;2023-03-26T20:00:51;9.20;99.90
19665;DHT22;9980;51.020;7.772;2023-03-26T20:03:27;9.20;99.90
19665;DHT22;9980;51.020;7.772;2023-03-26T20:05:56;9.10;99.90
19665;DHT22;9980;51.020;7.772;2023-03-26T20:08:23;9.10;99.90
19665;DHT22;9980;51.020;7.772;2023-03-26T20:10:54;9.00;99.90
19665;DHT22;9980;51.020;7.772;2023-03-26T20:13:22;9.00;99.90
19665;DHT22;9980;51.020;7.772;2023-03-26T20:15:55;9.00;99.90
19665;DHT22;9980;51.020;7.772;2023-03-26T20:18:32;8.90;99.90
19665;DHT22;9980;51.020;7.772;2023-03-26T20:21:00;8.90;99.90
19665;DHT22;9980;51.020;7.772;2023-03-26T20:23:27;8.90;99.90
19665;DHT22;9980;51.020;7.772;2023-03-26T20:25:54;8.90;99.90
19665;DHT22;9980;51.020;7.772;2023-03-26T20:28:21;8.90;99.90
19665;DHT22;9980;51.020;7.772;2023-03-26T20:30:50;8.80;99.90
19665;DHT22;9980;51.020;7.772;2023-03-26T20:33:22;8.80;99.90
19665;DHT22;9980;51.020;7.772;2023-03-26T20:35:52;8.80;99.90
19665;DHT22;9980;51.020;7.772;2023-03-26T20:38:21;8.80;99.90
19665;DHT22;9980;51.020;7.772;2023-03-26T20:41:05;8.70;99.90
19665;DHT22;9980;51.020;7.772;2023-03-26T20:43:35;8.70;99.90
19665;DHT22;9980;51.020;7.772;2023-03-26T20:46:02;8.70;99.90
19665;DHT22;9980;51.020;7.772;2023-03-26T20:48:29;8.70;99.90
19665;DHT22;9980;51.020;7.772;2023-03-26T20:50:57;8.70;99.90
19665;DHT22;9980;51.020;7.772;2023-03-26T20:53:23;8.60;99.90
19665;DHT22;9980;51.020;7.772;2023-03-26T20:55:50;8.60;99.90
19665;DHT22;9980;51.020;7.772;2023-03-26T20:58:19;8.50;99.90
19665;DHT22;9980;51.020;7.772;2023-03-26T21:01:00;8.50;99.90
19665;DHT22;9980;51.020;7.772;2023-03-26T21:03:28;8.50;99.90
19665;DHT22;9980;51.020;7.772;2023-03-26T21:05:59;8.40;99.90
19665;DHT22;9980;51.020;7.772;2023-03-26T21:08:30;8.40;99.90
19665;DHT22;9980;51.020;7.772;2023-03-26T21:11:02;8.40;99.90
19665;DHT22;9980;51.020;7.772;2023-03-26T21:13:36;8.30;99.90
19665;DHT22;9980;51.020;7.772;2023-03-26T21:16:07;8.30;99.90
19665;DHT22;9980;51.020;7.772;2023-03-26T21:18:36;8.30;99.90
19665;DHT22;9980;51.020;7.772;2023-03-26T21:25:03;8.20;99.90
19665;DHT22;9980;51.020;7.772;2023-03-26T21:30:38;8.10;99.20
19665;DHT22;9980;51.020;7.772;2023-03-26T21:33:05;8.00;99.60
19665;DHT22;9980;51.020;7.772;2023-03-26T21:35:33;7.90;99.60